Time;durP1;ratioP1;P1;durP2;ratioP2;P2;SDS_P1;SDS_P2;PMS_P1;PMS_P2;Temp;Humidity;BMP_temperature;BMP_pressure;BME280_temperature;BME280_humidity;BME280_pressure;Samples;Min_cycle;Max_cycle;Signal;HPM_P1;HPM_P2
2022/08/12 00:44:49;;;;;;;6.40;2.60;;;21.50;67.50;;;;;;5035492;28;20475;-48
2022/08/12 00:47:18;;;;;;;5.27;3.13;;;21.60;67.80;;;;;;5054788;28;20502;-47
2022/08/12 00:49:45;;;;;;;7.10;3.20;;;21.40;67.70;;;;;;5054591;28;20566;-46
2022/08/12 00:52:13;;;;;;;4.87;3.13;;;21.40;67.70;;;;;;5054950;28;20466;-46
2022/08/12 00:54:42;;;;;;;7.17;2.83;;;21.40;67.90;;;;;;5054931;28;20448;-47
2022/08/12 00:57:12;;;;;;;4.10;2.60;;;21.40;67.90;;;;;;5054809;28;20461;-45
2022/08/12 00:59:44;;;;;;;4.90;3.13;;;21.40;68.10;;;;;;5054376;28;20798;-45
2022/08/12 01:02:15;;;;;;;5.00;2.63;;;21.30;68.10;;;;;;5036436;28;20442;-46
2022/08/12 01:13:00;;;;;;;6.70;3.17;;;21.20;68.50;;;;;;5054661;28;20424;-46
2022/08/12 01:15:27;;;;;;;4.63;2.80;;;21.20;68.70;;;;;;5054447;28;20475;-45
2022/08/12 01:17:55;;;;;;;5.50;3.70;;;21.60;69.20;;;;;;5054721;28;20971;-45
2022/08/12 01:20:34;;;;;;;10.33;4.40;;;21.20;68.80;;;;;;5054156;28;20432;-46
2022/08/12 01:23:31;;;;;;;6.43;2.87;;;21.10;68.80;;;;;;5054539;28;20427;-46
2022/08/12 01:26:02;;;;;;;6.00;3.47;;;21.30;69.30;;;;;;5054281;28;20461;-46
2022/08/12 01:28:31;;;;;;;7.40;3.80;;;21.00;69.10;;;;;;5053891;28;20430;-45
2022/08/12 01:31:01;;;;;;;5.00;3.17;;;21.10;69.20;;;;;;5053851;28;20471;-46
2022/08/12 01:33:32;;;;;;;8.60;3.53;;;21.00;69.10;;;;;;5054087;28;20525;-46
2022/08/12 01:36:03;;;;;;;8.83;3.00;;;21.10;69.30;;;;;;5054020;28;20459;-45
2022/08/12 01:38:33;;;;;;;6.23;2.77;;;20.90;69.20;;;;;;5035481;28;20451;-46
2022/08/12 01:41:03;;;;;;;6.20;3.17;;;20.90;69.10;;;;;;5036169;28;20451;-46
2022/08/12 01:43:31;;;;;;;9.50;2.97;;;20.60;68.90;;;;;;5054018;28;20817;-46
2022/08/12 01:46:06;;;;;;;5.63;3.23;;;20.70;69.10;;;;;;5053876;28;20805;-46
2022/08/12 01:48:46;;;;;;;4.93;2.77;;;20.80;69.30;;;;;;5053535;28;20440;-46
2022/08/12 01:51:27;;;;;;;5.00;2.60;;;20.70;69.20;;;;;;5053934;28;20484;-47
2022/08/12 01:54:09;;;;;;;5.83;2.90;;;20.70;69.40;;;;;;5053795;28;20442;-46
2022/08/12 01:56:47;;;;;;;5.60;3.40;;;20.60;69.30;;;;;;5052768;28;20455;-46
2022/08/12 02:02:04;;;;;;;10.63;2.90;;;21.00;70.00;;;;;;5053853;28;20564;-45
2022/08/12 02:13:33;;;;;;;7.50;3.20;;;20.50;69.50;;;;;;5038358;28;20514;-46
2022/08/12 02:16:06;;;;;;;7.63;3.00;;;20.50;69.70;;;;;;5056661;28;20471;-45
2022/08/12 02:18:43;;;;;;;4.47;3.23;;;20.40;69.60;;;;;;5054297;28;20434;-45
2022/08/12 02:21:20;;;;;;;8.70;3.53;;;20.40;69.50;;;;;;5053359;28;20518;-46
2022/08/12 02:23:48;;;;;;;10.33;4.03;;;20.40;69.60;;;;;;5053576;28;20765;-45
2022/08/12 02:26:17;;;;;;;7.60;4.07;;;20.30;69.60;;;;;;5053281;28;20453;-45
2022/08/12 02:28:45;;;;;;;9.57;3.90;;;20.40;69.80;;;;;;5052665;28;20520;-46
2022/08/12 02:31:13;;;;;;;6.50;3.73;;;20.30;69.60;;;;;;5052947;28;20974;-46
2022/08/12 02:33:40;;;;;;;5.23;3.13;;;20.30;69.60;;;;;;5052957;28;20496;-46
2022/08/12 02:36:07;;;;;;;7.50;4.30;;;20.30;69.50;;;;;;5053025;28;21006;-45
2022/08/12 02:38:36;;;;;;;10.80;3.80;;;20.20;69.40;;;;;;5052779;28;20453;-45
2022/08/12 02:41:05;;;;;;;12.60;4.10;;;20.20;69.40;;;;;;5052974;28;20441;-46
2022/08/12 02:43:39;;;;;;;4.77;3.40;;;20.40;69.60;;;;;;5052866;28;20446;-46
2022/08/12 02:46:09;;;;;;;6.70;4.17;;;20.20;69.30;;;;;;5052987;28;20458;-46
2022/08/12 02:48:44;;;;;;;5.60;3.77;;;20.20;69.40;;;;;;5052614;28;20446;-47
2022/08/12 02:51:16;;;;;;;5.27;3.60;;;20.20;69.50;;;;;;5052792;28;20990;-46
2022/08/12 02:53:44;;;;;;;10.67;3.70;;;20.20;69.50;;;;;;5052838;28;20433;-46
2022/08/12 02:56:12;;;;;;;5.50;3.27;;;20.10;69.40;;;;;;5052662;28;20461;-44
2022/08/12 02:58:39;;;;;;;8.30;4.10;;;20.10;69.40;;;;;;5051898;28;20472;-46
2022/08/12 03:01:09;;;;;;;5.20;3.23;;;19.90;69.40;;;;;;5052343;28;20430;-46
2022/08/12 03:03:36;;;;;;;5.03;3.27;;;20.20;69.70;;;;;;5052695;28;20542;-45
2022/08/12 03:06:06;;;;;;;7.93;3.70;;;19.90;69.40;;;;;;5052471;28;20457;-46
2022/08/12 03:08:39;;;;;;;7.27;3.67;;;20.00;69.60;;;;;;5052060;28;20441;-47
2022/08/12 03:11:13;;;;;;;5.93;3.30;;;19.90;69.50;;;;;;5052175;28;20509;-47
2022/08/12 03:13:42;;;;;;;5.30;3.30;;;19.90;69.60;;;;;;5052356;28;20444;-46
2022/08/12 03:16:10;;;;;;;5.47;3.70;;;19.70;69.50;;;;;;5051914;28;20526;-47
2022/08/12 03:18:38;;;;;;;5.97;3.33;;;19.80;69.50;;;;;;5051650;28;20440;-46
2022/08/12 03:21:04;;;;;;;10.30;4.20;;;19.90;69.60;;;;;;5034256;28;20935;-46
2022/08/12 03:23:31;;;;;;;6.20;3.87;;;19.80;69.60;;;;;;5051674;28;20926;-47
2022/08/12 03:26:00;;;;;;;9.73;4.63;;;20.00;69.90;;;;;;5052020;28;20565;-45
2022/08/12 03:31:15;;;;;;;10.70;4.00;;;19.80;69.80;;;;;;5052177;28;20977;-47
2022/08/12 03:33:43;;;;;;;5.67;3.90;;;19.80;69.80;;;;;;5051846;28;20442;-47
2022/08/12 03:36:11;;;;;;;12.43;4.30;;;19.70;69.90;;;;;;5051593;28;20818;-46
2022/08/12 03:38:41;;;;;;;5.33;3.70;;;19.80;70.20;;;;;;5051644;28;20442;-46
2022/08/12 04:00:41;;;;;;;10.63;3.60;;;19.70;70.30;;;;;;5051103;28;20999;-47
2022/08/12 04:03:50;;;;;;;9.90;3.67;;;19.70;70.20;;;;;;5051263;28;20433;-48
2022/08/12 04:06:00;;;;;;;8.63;4.13;;;19.70;70.20;;;;;;5051239;28;20461;-45
2022/08/12 04:08:28;;;;;;;17.40;4.33;;;19.70;70.10;;;;;;5051160;28;20469;-45
2022/08/12 04:13:40;;;;;;;7.63;4.10;;;19.80;70.10;;;;;;5051288;28;20433;-46
2022/08/12 04:16:09;;;;;;;8.23;4.37;;;19.80;70.00;;;;;;5051405;28;21080;-47
2022/08/12 04:18:39;;;;;;;7.20;3.63;;;19.70;69.90;;;;;;5050347;28;20434;-46
2022/08/12 04:21:09;;;;;;;11.23;4.20;;;19.80;70.00;;;;;;5051567;28;20890;-46
2022/08/12 04:23:37;;;;;;;12.30;4.60;;;19.80;70.90;;;;;;5051443;28;20532;-46
2022/08/12 04:26:04;;;;;;;7.27;3.80;;;19.90;70.30;;;;;;5051151;28;20491;-46
2022/08/12 04:28:31;;;;;;;6.83;4.03;;;19.90;70.20;;;;;;5050594;28;20796;-46
2022/08/12 04:30:58;;;;;;;8.30;4.17;;;19.90;70.10;;;;;;5051323;28;20996;-47
2022/08/12 04:33:25;;;;;;;7.20;3.37;;;19.50;69.70;;;;;;5051323;28;20438;-49
2022/08/12 04:35:53;;;;;;;7.60;3.93;;;19.90;70.10;;;;;;5051176;28;20507;-47
2022/08/12 04:38:21;;;;;;;7.20;4.20;;;19.90;70.10;;;;;;5051182;28;20770;-45
2022/08/12 04:40:48;;;;;;;9.73;4.27;;;20.00;70.00;;;;;;5050781;28;20437;-45
2022/08/12 04:43:16;;;;;;;6.33;3.70;;;20.00;70.00;;;;;;5051003;28;20440;-46
2022/08/12 04:45:42;;;;;;;13.27;3.57;;;20.00;70.00;;;;;;5050745;28;20565;-45
2022/08/12 04:48:09;;;;;;;10.30;4.60;;;20.00;69.80;;;;;;5050902;28;20774;-46
2022/08/12 04:50:36;;;;;;;12.50;4.50;;;19.70;69.40;;;;;;5050569;28;20770;-46
2022/08/12 04:53:05;;;;;;;11.60;4.60;;;20.20;69.80;;;;;;5051046;28;20950;-46
2022/08/12 04:55:34;;;;;;;14.20;4.23;;;20.70;70.20;;;;;;5050816;28;20446;-46
2022/08/12 04:58:00;;;;;;;15.00;5.30;;;20.30;69.60;;;;;;5050696;28;20527;-46
2022/08/12 05:00:27;;;;;;;12.53;5.40;;;20.40;69.70;;;;;;5050504;28;20817;-46
2022/08/12 05:02:54;;;;;;;23.30;5.93;;;20.50;69.80;;;;;;5050840;28;20890;-46
2022/08/12 05:05:22;;;;;;;18.20;4.20;;;20.60;69.60;;;;;;5050576;28;20454;-46
2022/08/12 05:07:49;;;;;;;14.37;4.60;;;20.70;69.50;;;;;;5050398;28;20446;-46
2022/08/12 05:10:18;;;;;;;14.30;4.43;;;20.80;69.30;;;;;;5050348;28;20438;-47
2022/08/12 05:12:47;;;;;;;9.10;4.20;;;20.90;69.30;;;;;;5050930;28;20527;-47
2022/08/12 05:15:14;;;;;;;9.83;4.80;;;21.00;69.10;;;;;;5051098;28;20446;-46
2022/08/12 05:17:41;;;;;;;12.10;5.23;;;20.70;68.50;;;;;;5051134;28;20451;-47
2022/08/12 05:20:10;;;;;;;11.43;5.07;;;21.40;68.90;;;;;;5050431;28;20436;-48
2022/08/12 05:22:37;;;;;;;12.47;5.17;;;21.30;68.30;;;;;;5050906;28;20442;-47
2022/08/12 05:25:05;;;;;;;13.13;4.90;;;21.40;68.10;;;;;;5050901;28;20435;-48
2022/08/12 05:27:33;;;;;;;9.97;4.20;;;21.50;67.80;;;;;;5050969;28;20435;-48
2022/08/12 05:30:00;;;;;;;12.37;4.10;;;21.70;67.60;;;;;;5050686;28;20435;-47
2022/08/12 05:32:27;;;;;;;10.43;5.10;;;21.80;67.00;;;;;;5053832;28;20503;-46
2022/08/12 05:34:54;;;;;;;17.10;4.93;;;21.90;66.70;;;;;;5054133;28;21031;-47
2022/08/12 05:37:22;;;;;;;11.97;3.87;;;22.00;66.40;;;;;;5054287;28;20475;-47
2022/08/12 05:39:49;;;;;;;12.67;4.87;;;22.30;66.00;;;;;;5054075;28;20497;-47
2022/08/12 05:42:15;;;;;;;12.83;4.10;;;22.20;65.60;;;;;;5054148;28;20437;-47
2022/08/12 05:44:43;;;;;;;10.93;3.80;;;22.40;65.30;;;;;;5054141;28;20521;-48
2022/08/12 05:47:11;;;;;;;11.50;5.40;;;22.90;65.50;;;;;;5053777;28;20479;-47
2022/08/12 05:49:39;;;;;;;8.13;3.90;;;22.50;64.60;;;;;;5053724;28;20479;-47
2022/08/12 05:52:06;;;;;;;14.40;4.80;;;22.60;64.10;;;;;;5053876;28;20481;-48
2022/08/12 05:54:33;;;;;;;7.50;4.10;;;22.80;63.70;;;;;;5053795;28;20523;-46
2022/08/12 05:57:00;;;;;;;11.27;4.90;;;23.10;63.50;;;;;;5035892;28;20469;-47
2022/08/12 05:59:26;;;;;;;7.03;4.90;;;23.00;62.70;;;;;;5053918;28;20491;-48
2022/08/12 06:02:02;;;;;;;6.53;4.07;;;23.10;62.40;;;;;;5053531;28;20434;-48
2022/08/12 06:04:31;;;;;;;11.50;5.33;;;23.10;62.00;;;;;;5053803;28;20821;-48
2022/08/12 06:07:00;;;;;;;11.70;6.03;;;22.90;61.80;;;;;;5053620;28;20523;-47
2022/08/12 06:09:27;;;;;;;8.83;4.10;;;23.30;62.70;;;;;;5053441;28;20931;-47
2022/08/12 06:11:54;;;;;;;8.10;4.90;;;23.40;61.50;;;;;;5053747;28;20478;-46
2022/08/12 06:14:21;;;;;;;11.80;3.83;;;23.50;61.30;;;;;;5053668;28;20533;-47
2022/08/12 06:16:49;;;;;;;14.77;5.30;;;23.60;61.00;;;;;;5053394;28;20474;-46
2022/08/12 06:19:17;;;;;;;9.70;4.57;;;23.70;60.80;;;;;;5053151;28;20441;-47
2022/08/12 06:21:47;;;;;;;7.00;4.63;;;23.80;60.80;;;;;;5053733;28;20521;-48
2022/08/12 06:24:13;;;;;;;7.90;3.90;;;23.80;60.60;;;;;;5053679;28;20428;-48
2022/08/12 06:26:40;;;;;;;12.77;5.37;;;23.90;60.50;;;;;;5053372;28;20460;-47
2022/08/12 06:29:07;;;;;;;6.23;3.50;;;24.00;60.30;;;;;;5053795;28;20442;-48
2022/08/12 06:31:34;;;;;;;5.60;3.27;;;24.10;59.80;;;;;;5054387;28;20494;-47
2022/08/12 06:34:01;;;;;;;9.07;4.17;;;24.10;59.30;;;;;;5054964;28;20449;-47
2022/08/12 06:36:29;;;;;;;8.40;3.70;;;24.10;59.30;;;;;;5053875;28;20791;-46
2022/08/12 06:38:56;;;;;;;8.07;3.67;;;24.20;59.10;;;;;;5054630;28;20446;-47
2022/08/12 06:44:19;;;;;;;5.50;4.00;;;24.30;58.50;;;;;;5037004;28;20832;-47
2022/08/12 06:46:46;;;;;;;5.37;2.60;;;24.40;58.20;;;;;;5055028;28;20551;-49
2022/08/12 06:49:13;;;;;;;6.97;2.73;;;24.20;57.70;;;;;;5053733;28;20475;-47
2022/08/12 06:51:41;;;;;;;8.83;2.93;;;24.40;57.80;;;;;;5035744;28;20480;-48
2022/08/12 06:54:09;;;;;;;6.77;3.20;;;24.50;57.80;;;;;;5053705;28;20447;-48
2022/08/12 06:56:36;;;;;;;9.83;3.17;;;24.50;57.70;;;;;;5053496;28;20453;-47
2022/08/12 06:59:03;;;;;;;11.10;4.20;;;24.50;57.60;;;;;;5052861;28;20435;-47
2022/08/12 07:01:30;;;;;;;5.90;3.13;;;24.50;57.40;;;;;;5053284;28;20466;-46
2022/08/12 07:03:57;;;;;;;4.53;2.77;;;24.60;57.20;;;;;;5053029;28;20886;-46
2022/08/12 07:06:24;;;;;;;5.60;3.03;;;24.60;57.00;;;;;;5052595;28;20464;-46
2022/08/12 07:08:52;;;;;;;9.60;3.10;;;24.80;57.10;;;;;;5051982;28;20444;-47
2022/08/12 07:11:18;;;;;;;8.80;3.47;;;24.70;56.90;;;;;;5052456;28;20444;-47
2022/08/12 07:13:49;;;;;;;6.63;2.37;;;24.70;56.80;;;;;;5052349;28;20438;-47
2022/08/12 07:16:17;;;;;;;6.73;2.10;;;24.80;56.70;;;;;;5052379;28;20520;-45
2022/08/12 07:18:49;;;;;;;4.17;2.10;;;24.70;56.60;;;;;;5051737;28;20571;-47
2022/08/12 07:21:18;;;;;;;8.20;2.90;;;24.70;56.50;;;;;;5052451;28;20475;-47
2022/08/12 07:23:45;;;;;;;7.23;1.93;;;24.80;56.50;;;;;;5052384;28;20444;-46
2022/08/12 07:26:15;;;;;;;3.30;1.70;;;24.80;56.30;;;;;;5052035;28;20954;-46
2022/08/12 07:28:43;;;;;;;5.43;2.03;;;24.90;56.20;;;;;;5052029;28;20437;-47
2022/08/12 07:31:11;;;;;;;3.47;1.93;;;24.90;56.10;;;;;;5052474;28;20437;-46
2022/08/12 07:33:40;;;;;;;5.77;3.60;;;24.90;56.20;;;;;;5052156;28;20977;-46
2022/08/12 07:36:09;;;;;;;4.67;2.10;;;24.70;55.90;;;;;;5051917;28;20560;-47
2022/08/12 07:38:37;;;;;;;4.43;2.20;;;25.00;56.10;;;;;;5051643;28;20442;-46
2022/08/12 07:41:07;;;;;;;5.57;5.00;;;25.00;56.20;;;;;;5052090;28;20433;-47
2022/08/12 07:43:37;;;;;;;7.10;1.97;;;25.00;56.20;;;;;;5034409;28;20478;-48
2022/08/12 07:46:06;;;;;;;4.83;2.50;;;25.10;56.10;;;;;;5051832;28;20453;-47
2022/08/12 07:48:36;;;;;;;4.80;1.93;;;25.10;55.90;;;;;;5051477;28;20459;-46
2022/08/12 07:51:04;;;;;;;4.77;2.07;;;25.20;55.90;;;;;;5051938;28;20451;-46
2022/08/12 07:53:31;;;;;;;8.27;2.57;;;25.10;55.60;;;;;;5050650;28;20888;-47
2022/08/12 07:55:57;;;;;;;6.73;1.40;;;25.20;55.40;;;;;;5051135;28;20897;-47
2022/08/12 07:58:25;;;;;;;5.77;2.00;;;25.20;55.20;;;;;;5050946;28;20441;-47
2022/08/12 08:00:56;;;;;;;2.53;1.60;;;25.20;55.20;;;;;;5051115;28;20954;-46
2022/08/12 08:03:23;;;;;;;10.83;2.00;;;25.20;55.20;;;;;;5051146;28;20470;-47
2022/08/12 08:05:50;;;;;;;2.73;2.03;;;25.20;55.10;;;;;;5051697;28;20468;-47
2022/08/12 08:08:19;;;;;;;4.00;2.07;;;25.30;55.70;;;;;;5051444;28;20446;-47
2022/08/12 08:10:47;;;;;;;5.00;2.80;;;25.50;55.40;;;;;;5050789;28;20446;-49
2022/08/12 08:13:14;;;;;;;2.67;2.33;;;25.30;55.40;;;;;;5051326;28;20489;-47
2022/08/12 08:15:41;;;;;;;6.10;1.63;;;25.30;55.30;;;;;;5051240;28;21021;-46
2022/08/12 08:18:10;;;;;;;8.10;2.20;;;25.30;55.10;;;;;;5051478;28;20434;-47
2022/08/12 08:20:40;;;;;;;7.97;1.60;;;25.40;55.20;;;;;;5051189;28;20449;-46
2022/08/12 08:23:10;;;;;;;4.37;2.70;;;25.20;55.20;;;;;;5051410;28;20807;-46
2022/08/12 08:25:38;;;;;;;3.60;1.60;;;25.40;55.00;;;;;;5051085;28;20824;-47
2022/08/12 08:28:08;;;;;;;3.17;1.80;;;25.50;54.80;;;;;;5051491;28;20481;-47
2022/08/12 08:30:37;;;;;;;4.27;1.97;;;25.40;54.70;;;;;;5051041;28;20496;-48
2022/08/12 08:33:04;;;;;;;1.87;1.27;;;25.50;54.80;;;;;;5051021;28;20938;-47
2022/08/12 08:35:32;;;;;;;2.00;1.60;;;25.50;54.60;;;;;;5033030;28;20470;-46
2022/08/12 08:38:06;;;;;;;4.57;1.93;;;25.50;54.30;;;;;;5051249;28;20446;-47
2022/08/12 08:43:20;;;;;;;7.90;1.90;;;25.60;54.10;;;;;;5051237;28;20537;-47
2022/08/12 08:45:47;;;;;;;5.53;1.97;;;25.60;53.50;;;;;;5051228;28;20826;-49
2022/08/12 08:48:14;;;;;;;5.73;1.97;;;25.70;53.40;;;;;;5051791;28;20449;-48
2022/08/12 08:50:42;;;;;;;6.60;4.97;;;25.70;54.00;;;;;;5051006;28;20444;-47
2022/08/12 08:53:09;;;;;;;2.03;1.30;;;25.80;53.40;;;;;;5051378;28;20485;-46
2022/08/12 08:55:36;;;;;;;11.50;2.27;;;25.80;53.10;;;;;;5051394;28;20454;-47
2022/08/12 08:58:02;;;;;;;8.70;2.33;;;25.80;53.10;;;;;;5050861;28;20431;-47
2022/08/12 09:00:29;;;;;;;4.00;1.67;;;25.80;52.70;;;;;;5050595;28;20437;-47
2022/08/12 09:02:56;;;;;;;5.07;1.67;;;25.60;52.10;;;;;;5051368;28;20438;-47
2022/08/12 09:05:22;;;;;;;8.27;2.20;;;25.80;52.10;;;;;;5053244;28;20450;-45
2022/08/12 09:07:51;;;;;;;2.20;1.73;;;25.80;52.80;;;;;;5055845;28;20442;-46
2022/08/12 09:10:19;;;;;;;6.57;2.80;;;25.80;51.60;;;;;;5054884;28;20869;-47
2022/08/12 09:15:30;;;;;;;5.43;3.37;;;25.90;51.60;;;;;;5054524;28;20473;-47
2022/08/12 09:17:58;;;;;;;3.50;1.40;;;25.80;51.20;;;;;;5054622;28;20492;-48
2022/08/12 09:20:26;;;;;;;2.30;1.60;;;25.90;51.20;;;;;;5053821;28;20883;-47
2022/08/12 09:22:55;;;;;;;13.20;2.30;;;25.90;50.60;;;;;;5054371;28;20485;-46
2022/08/12 09:25:24;;;;;;;8.63;1.70;;;26.00;50.60;;;;;;5054698;28;20805;-47
2022/08/12 09:27:51;;;;;;;3.03;2.13;;;26.00;50.80;;;;;;5054700;28;20497;-47
2022/08/12 09:30:19;;;;;;;7.23;1.70;;;26.30;51.10;;;;;;5054666;28;20437;-48
2022/08/12 09:32:49;;;;;;;2.20;1.60;;;25.90;50.70;;;;;;5054124;28;20635;-46
2022/08/12 09:35:19;;;;;;;5.53;1.80;;;26.10;50.10;;;;;;5054253;28;20423;-47
2022/08/12 09:37:47;;;;;;;4.20;2.10;;;26.10;49.90;;;;;;5054529;28;20481;-47
2022/08/12 09:40:15;;;;;;;5.57;1.70;;;26.10;50.10;;;;;;5053419;28;20523;-46
2022/08/12 09:45:27;;;;;;;3.60;2.00;;;26.30;50.30;;;;;;5054187;28;20485;-47
2022/08/12 09:47:54;;;;;;;7.90;1.80;;;26.20;49.60;;;;;;5053970;28;20442;-47
2022/08/12 09:50:21;;;;;;;4.03;2.00;;;26.20;49.70;;;;;;5053504;28;20441;-47
2022/08/12 09:53:02;;;;;;;2.70;1.50;;;26.30;49.90;;;;;;5053736;28;20478;-47
2022/08/12 09:55:31;;;;;;;4.33;1.73;;;26.30;49.10;;;;;;5053202;28;20967;-48
2022/08/12 09:57:58;;;;;;;5.60;1.70;;;26.30;48.80;;;;;;5053575;28;20500;-47
2022/08/12 10:00:25;;;;;;;3.47;1.70;;;26.30;49.00;;;;;;5052763;28;20431;-48
2022/08/12 10:02:59;;;;;;;9.70;1.90;;;26.30;49.10;;;;;;5053404;28;20519;-47
2022/08/12 10:05:26;;;;;;;5.27;1.73;;;26.40;49.20;;;;;;5053245;28;20450;-47
2022/08/12 10:07:53;;;;;;;7.60;1.60;;;26.40;48.60;;;;;;5053342;28;20453;-47
2022/08/12 10:10:19;;;;;;;6.40;1.63;;;26.40;48.70;;;;;;5052656;28;20434;-48
2022/08/12 10:15:32;;;;;;;5.20;2.00;;;26.50;48.80;;;;;;5078450;22;20519;-48
2022/08/12 10:17:58;;;;;;;3.77;1.90;;;26.40;49.00;;;;;;5072004;28;20441;-48
2022/08/12 10:20:25;;;;;;;6.13;2.17;;;26.50;48.90;;;;;;5073467;28;20957;-49
2022/08/12 10:22:57;;;;;;;4.93;2.10;;;26.60;48.80;;;;;;5073819;28;20429;-49
2022/08/12 10:30:55;;;;;;;5.83;1.50;;;26.70;48.70;;;;;;5071854;28;20434;-50
2022/08/12 10:33:21;;;;;;;3.63;1.80;;;26.70;48.40;;;;;;5073216;28;21064;-49
2022/08/12 10:35:48;;;;;;;4.17;1.90;;;26.70;48.00;;;;;;5073080;28;20458;-49
2022/08/12 10:38:16;;;;;;;2.93;1.77;;;26.70;47.90;;;;;;5073031;28;20445;-49
2022/08/12 10:43:43;;;;;;;5.87;1.67;;;26.70;47.60;;;;;;5073231;28;20440;-48
2022/08/12 10:46:15;;;;;;;4.73;1.90;;;26.70;47.70;;;;;;5072754;28;20446;-48
2022/08/12 10:48:42;;;;;;;5.60;2.07;;;26.70;47.80;;;;;;5072386;28;20801;-48
2022/08/12 10:51:10;;;;;;;3.53;2.47;;;26.70;47.80;;;;;;5072722;28;20425;-48
2022/08/12 10:53:38;;;;;;;5.20;2.10;;;26.70;47.80;;;;;;5072103;28;20984;-48
2022/08/12 10:56:06;;;;;;;5.70;1.70;;;26.80;47.80;;;;;;5072800;28;20453;-49
2022/08/12 10:58:35;;;;;;;5.53;1.90;;;26.90;47.70;;;;;;5072284;28;20446;-49
2022/08/12 11:01:04;;;;;;;6.03;3.07;;;26.90;47.60;;;;;;5073086;28;20445;-48
2022/08/12 11:03:33;;;;;;;4.73;2.10;;;26.90;47.50;;;;;;5072936;28;20496;-49
2022/08/12 11:06:00;;;;;;;5.63;1.90;;;26.90;47.50;;;;;;5072623;28;20462;-49
2022/08/12 11:08:26;;;;;;;5.70;1.33;;;26.90;47.40;;;;;;5072167;28;20945;-49
2022/08/12 11:10:53;;;;;;;6.10;2.00;;;27.00;47.30;;;;;;5072649;28;20477;-48
2022/08/12 11:13:20;;;;;;;6.47;1.80;;;27.00;47.30;;;;;;5072580;28;20472;-48
2022/08/12 11:15:47;;;;;;;5.83;1.80;;;27.00;47.40;;;;;;5071276;28;20479;-49
2022/08/12 11:18:14;;;;;;;4.97;1.60;;;27.00;47.40;;;;;;5072508;28;20430;-49
2022/08/12 11:20:41;;;;;;;3.93;1.57;;;27.00;47.30;;;;;;5072123;28;20437;-49
2022/08/12 11:23:07;;;;;;;5.07;2.20;;;27.00;47.30;;;;;;5072407;28;20487;-49
2022/08/12 11:25:34;;;;;;;4.70;1.80;;;27.00;47.40;;;;;;5072239;28;20831;-49
2022/08/12 11:28:01;;;;;;;4.57;2.00;;;27.10;47.40;;;;;;5071806;28;20466;-49
2022/08/12 11:30:27;;;;;;;3.80;1.40;;;27.20;47.20;;;;;;5072637;28;20421;-49
2022/08/12 11:32:55;;;;;;;6.30;1.77;;;27.30;46.90;;;;;;5072192;28;20470;-49
2022/08/12 11:35:21;;;;;;;6.20;1.93;;;27.50;46.80;;;;;;5071900;28;20451;-49
2022/08/12 11:37:48;;;;;;;6.23;2.10;;;27.60;46.60;;;;;;5071288;28;20433;-49
2022/08/12 11:40:15;;;;;;;3.80;1.40;;;27.70;46.60;;;;;;5070972;28;20426;-49
2022/08/12 11:42:42;;;;;;;3.00;1.30;;;27.80;46.30;;;;;;5071710;28;20435;-49
2022/08/12 11:45:10;;;;;;;6.40;2.30;;;27.80;46.10;;;;;;5070373;28;20558;-49
2022/08/12 11:47:37;;;;;;;3.80;1.90;;;27.80;46.00;;;;;;5070530;28;21031;-49
2022/08/12 11:50:06;;;;;;;5.47;2.20;;;27.80;46.00;;;;;;5071819;28;20438;-49
2022/08/12 11:52:33;;;;;;;4.93;1.60;;;27.80;46.00;;;;;;5072014;28;20965;-49
2022/08/12 11:54:59;;;;;;;3.03;1.70;;;27.80;46.20;;;;;;5072499;28;20434;-48
2022/08/12 11:57:26;;;;;;;4.10;1.80;;;27.70;46.20;;;;;;5071811;28;20463;-49
2022/08/12 11:59:53;;;;;;;2.63;1.50;;;27.80;46.30;;;;;;5071617;28;20436;-49
2022/08/12 12:02:19;;;;;;;5.67;1.70;;;27.80;46.30;;;;;;5071560;28;20961;-49
2022/08/12 12:04:46;;;;;;;5.67;1.90;;;27.90;46.40;;;;;;5071552;28;20444;-49
2022/08/12 12:07:14;;;;;;;4.50;2.10;;;27.90;46.30;;;;;;5071380;28;20454;-49
2022/08/12 12:09:40;;;;;;;7.83;3.17;;;27.90;46.10;;;;;;5071208;28;20442;-49
2022/08/12 12:12:07;;;;;;;1.70;1.37;;;28.00;46.20;;;;;;5071414;28;20508;-49
2022/08/12 12:14:34;;;;;;;2.93;1.63;;;28.10;46.00;;;;;;5071512;28;20544;-49
2022/08/12 12:17:01;;;;;;;7.47;2.23;;;28.30;45.80;;;;;;5071784;28;20475;-50
2022/08/12 12:19:27;;;;;;;7.10;2.77;;;28.40;45.60;;;;;;5069563;28;20834;-49
2022/08/12 12:21:54;;;;;;;5.60;1.50;;;28.50;45.00;;;;;;5071782;28;20432;-49
2022/08/12 12:24:22;;;;;;;5.17;1.93;;;28.60;44.60;;;;;;5070389;28;20445;-49
2022/08/12 12:26:49;;;;;;;2.17;1.40;;;28.60;44.60;;;;;;5071946;28;20453;-49
2022/08/12 12:29:15;;;;;;;3.63;1.50;;;28.60;44.50;;;;;;5070961;28;20442;-49
2022/08/12 12:31:42;;;;;;;3.17;1.67;;;28.70;44.50;;;;;;5071567;28;20441;-49
2022/08/12 12:34:09;;;;;;;6.80;2.00;;;28.80;44.60;;;;;;5071364;28;20527;-49
2022/08/12 12:36:35;;;;;;;3.50;2.27;;;28.80;44.40;;;;;;5071395;28;20698;-49
2022/08/12 12:39:02;;;;;;;4.27;2.00;;;28.90;44.30;;;;;;5071405;28;20440;-49
2022/08/12 12:41:30;;;;;;;7.43;1.90;;;28.80;44.20;;;;;;5074561;28;20432;-49
2022/08/12 12:43:56;;;;;;;3.57;1.50;;;28.90;43.90;;;;;;5075435;28;20428;-49
2022/08/12 12:46:23;;;;;;;3.73;1.67;;;28.90;43.90;;;;;;5073818;28;20473;-49
2022/08/12 12:48:49;;;;;;;3.03;1.63;;;29.00;44.50;;;;;;5074953;28;20444;-49
2022/08/12 12:51:16;;;;;;;2.90;1.70;;;29.00;43.80;;;;;;5075292;28;20956;-49
2022/08/12 12:53:45;;;;;;;2.27;1.30;;;29.00;43.90;;;;;;5075404;28;20838;-49
2022/08/12 12:56:16;;;;;;;2.23;1.50;;;29.00;43.60;;;;;;5074845;28;20453;-49
2022/08/12 12:58:45;;;;;;;3.30;1.77;;;29.10;43.60;;;;;;5074924;28;20437;-49
2022/08/12 13:01:12;;;;;;;3.07;1.60;;;29.10;43.50;;;;;;5075211;28;20441;-50
2022/08/12 13:03:39;;;;;;;2.67;1.87;;;29.20;43.50;;;;;;5075161;28;20425;-49
2022/08/12 13:06:07;;;;;;;3.33;1.43;;;29.20;43.40;;;;;;5075061;28;20473;-49
2022/08/12 13:08:34;;;;;;;3.90;1.60;;;29.20;43.50;;;;;;5074515;28;20449;-50
2022/08/12 13:11:03;;;;;;;6.00;1.70;;;29.20;43.50;;;;;;5074876;28;20421;-50
2022/08/12 13:13:31;;;;;;;2.40;1.40;;;29.30;43.50;;;;;;5074568;28;20977;-50
2022/08/12 13:16:00;;;;;;;4.87;1.40;;;29.40;43.40;;;;;;5074296;28;20572;-48
2022/08/12 13:18:35;;;;;;;3.93;1.50;;;29.50;43.30;;;;;;5074368;28;20437;-49
2022/08/12 13:21:02;;;;;;;5.63;4.47;;;29.50;43.20;;;;;;5074415;28;20805;-49
2022/08/12 13:23:28;;;;;;;9.10;2.87;;;29.60;43.10;;;;;;5074982;28;20922;-49
2022/08/12 13:25:56;;;;;;;4.30;2.03;;;29.60;43.20;;;;;;5074612;28;20445;-48
2022/08/12 13:28:23;;;;;;;3.87;2.00;;;29.70;43.30;;;;;;5074821;28;20530;-49
2022/08/12 13:30:51;;;;;;;5.53;1.50;;;29.70;43.20;;;;;;5074223;28;20929;-49
2022/08/12 13:33:24;;;;;;;2.53;1.40;;;29.60;43.20;;;;;;5074926;28;20451;-49
2022/08/12 13:35:52;;;;;;;3.87;1.70;;;29.50;43.20;;;;;;5073994;28;20548;-49
2022/08/12 13:38:19;;;;;;;4.07;1.40;;;29.50;43.10;;;;;;5074528;28;20434;-49
2022/08/12 13:40:46;;;;;;;3.43;2.20;;;29.40;43.00;;;;;;5073998;28;20525;-49
2022/08/12 13:43:14;;;;;;;3.53;1.90;;;29.30;43.30;;;;;;5073541;28;20805;-49
2022/08/12 13:45:41;;;;;;;2.47;2.10;;;29.30;43.50;;;;;;5073866;28;20522;-50
2022/08/12 13:48:08;;;;;;;4.03;1.33;;;29.30;44.00;;;;;;5073452;28;20771;-48
2022/08/12 13:50:37;;;;;;;4.03;1.23;;;29.30;43.50;;;;;;5073459;28;20524;-49
2022/08/12 13:53:07;;;;;;;4.13;1.80;;;29.30;43.60;;;;;;5071373;28;20507;-49
2022/08/12 13:55:34;;;;;;;4.27;1.80;;;29.30;43.80;;;;;;5074109;28;20477;-49
2022/08/12 13:58:04;;;;;;;4.83;2.37;;;29.20;43.80;;;;;;5073946;28;20443;-49
2022/08/12 14:00:31;;;;;;;5.70;2.00;;;29.30;43.90;;;;;;5073755;28;20438;-49
2022/08/12 14:02:58;;;;;;;5.37;1.37;;;29.40;44.00;;;;;;5074143;28;20513;-49
2022/08/12 14:05:25;;;;;;;3.33;1.80;;;29.40;43.80;;;;;;5073913;28;20975;-49
2022/08/12 14:07:55;;;;;;;6.13;1.77;;;29.50;43.80;;;;;;5073755;28;20930;-49
2022/08/12 14:10:36;;;;;;;4.43;2.43;;;29.50;43.60;;;;;;5073394;28;20438;-48
2022/08/12 14:13:04;;;;;;;5.97;1.70;;;29.60;43.70;;;;;;5073123;28;20422;-48
2022/08/12 14:15:30;;;;;;;3.53;2.17;;;29.60;43.60;;;;;;5073013;28;20566;-48
2022/08/12 14:18:06;;;;;;;5.93;2.30;;;29.60;43.70;;;;;;5073557;28;20434;-48
2022/08/12 14:20:32;;;;;;;5.30;2.03;;;29.70;43.70;;;;;;5071411;28;20450;-50
2022/08/12 14:23:00;;;;;;;10.53;2.67;;;29.70;43.70;;;;;;5073343;28;20436;-49
2022/08/12 14:25:27;;;;;;;6.43;2.50;;;29.70;43.80;;;;;;5073262;28;20442;-49
2022/08/12 14:27:54;;;;;;;3.47;1.70;;;29.60;43.70;;;;;;5073374;28;20476;-49
2022/08/12 14:30:22;;;;;;;18.63;2.17;;;29.60;43.50;;;;;;5073230;28;20866;-48
2022/08/12 14:32:48;;;;;;;3.27;1.73;;;29.50;43.60;;;;;;5073153;28;20430;-49
2022/08/12 14:35:18;;;;;;;6.23;2.20;;;29.00;43.30;;;;;;5073144;28;20972;-50
2022/08/12 14:37:44;;;;;;;5.07;2.10;;;29.30;43.60;;;;;;5073346;28;20473;-49
2022/08/12 14:40:14;;;;;;;7.03;2.07;;;29.20;43.80;;;;;;5072784;28;20438;-49
2022/08/12 14:42:40;;;;;;;7.70;1.80;;;29.10;43.60;;;;;;5072719;28;21032;-49